Latest Weather Observations for Degrussa Aerodrome

IDW60801

Issued at 6:13 pm WST Sunday 16 December 2018 (issued every 10 minutes, with the page automatically refreshed every 10 minutes)

About weather observations | Map of weather stations | Latest weather observations for WA | Other Formats
Station Details ID: 507500 Name: DEGRUSSA AERODROME Lat: -25.56 Lon: 119.29 Height: 550.91 m
Data from the previous 72 hours. | See also: Recent months for locations in Western Australia
Date/Time
WST
Temp
°C
App
Temp
°C
Dew
Point
°C
Rel
Hum
%
Delta-T
°C
Wind Press
QNH
hPa
Press
MSL
hPa
Rain since
9am
mm
Dir  Spd
km/h
Gust
km/h
Spd
kts
Gust
kts
16/06:00pm 28.7 23.1 3.5 20 13.1 W 22 39 12 21 1004.9 1000.5 0.0
16/05:30pm 29.3 23.7 3.3 19 13.4 W 22 32 12 17 1004.5 1000.1 0.0
16/05:00pm 30.1 23.3 3.2 18 14.0 WSW 28 41 15 22 1004.2 999.7 0.0
16/04:30pm 30.3 23.6 3.4 18 14.0 W 28 41 15 22 1004.1 999.6 0.0
16/04:00pm 30.5 24.2 3.5 18 14.1 W 26 44 14 24 1004.1 999.6 0.0
16/03:30pm 30.9 24.8 3.0 17 14.5 W 24 35 13 19 1004.2 999.7 0.0
16/03:00pm 31.4 25.3 2.6 16 14.9 W 24 37 13 20 1004.4 1000.0 0.0
16/02:30pm 31.4 25.3 2.6 16 14.9 W 24 44 13 24 1004.7 1000.3 0.0
16/02:11pm 31.0 24.3 3.9 18 14.3 W 28 48 15 26 1004.7 1000.3 0.0
16/02:00pm 30.9 24.8 4.6 19 14.1 W 26 44 14 24 1004.7 1000.3 0.0
16/01:30pm 31.2 25.9 4.9 19 14.1 WNW 22 46 12 25 1005.0 1000.6 0.0
16/01:21pm 30.4 23.9 4.9 20 13.6 WNW 28 46 15 25 1005.1 1000.7 0.0
16/01:00pm 30.3 24.6 4.9 20 13.6 W 24 39 13 21 1005.6 1001.1 0.0
16/12:30pm 29.4 23.3 6.7 24 12.4 WSW 28 46 15 25 1005.8 1001.3 0.0
16/12:25pm 29.9 23.8 6.5 23 12.8 W 28 46 15 25 1005.8 1001.3 0.0
16/12:00pm 29.8 24.6 7.1 24 12.6 W 24 41 13 22 1006.0 1001.6 0.0
16/11:30am 28.8 23.6 9.0 29 11.2 WNW 26 39 14 21 1006.4 1002.0 0.0
16/11:00am 27.6 23.1 9.9 33 10.1 W 24 39 13 21 1006.7 1002.3 0.0
16/10:30am 27.0 23.3 11.5 38 9.1 W 22 37 12 20 1007.0 1002.6 0.0
16/10:00am 26.4 22.6 12.5 42 8.3 W 24 37 13 20 1007.2 1002.8 0.0
16/09:30am 25.3 22.2 12.2 44 7.7 WSW 20 32 11 17 1007.5 1003.0 0.0
16/09:00am 24.7 21.7 12.6 47 7.2 W 20 32 11 17 1007.8 1003.4 0.0
16/08:30am 24.0 21.7 12.9 50 6.6 SW 17 24 9 13 1007.8 1003.4 0.0
16/08:00am 23.6 21.7 12.9 51 6.3 SW 15 26 8 14 1007.8 1003.4 0.0
16/07:30am 23.1 21.1 12.7 52 6.1 SW 15 26 8 14 1007.8 1003.4 0.0
16/07:00am 22.7 20.2 12.3 52 6.1 SW 17 22 9 12 1007.5 1003.0 0.0
16/06:30am 22.5 19.4 12.2 52 6.0 SW 20 24 11 13 1007.0 1002.6 0.0
16/06:00am 22.3 19.8 12.3 53 5.8 SW 17 22 9 12 1006.6 1002.2 0.0
16/05:30am 21.9 19.3 11.9 53 5.8 SW 17 22 9 12 1006.3 1001.9 0.0
16/05:00am 22.0 20.5 12.0 53 5.8 SW 11 17 6 9 1005.8 1001.3 0.0
16/04:30am 22.3 20.7 11.7 51 6.1 SW 11 15 6 8 1005.3 1000.9 0.0
16/04:00am 22.7 21.5 11.7 49 6.4 SW 9 13 5 7 1005.0 1000.6 0.0
16/03:30am 23.3 22.2 12.0 49 6.6 SW 9 13 5 7 1004.8 1000.4 0.0
16/03:00am 23.7 21.8 11.7 47 7.0 WSW 13 19 7 10 1004.6 1000.2 0.0
16/02:30am 24.2 22.3 11.9 46 7.2 SW 13 19 7 10 1004.3 999.8 0.0
16/02:00am 24.6 22.2 11.5 44 7.6 WSW 15 20 8 11 1004.2 999.7 0.0
16/01:30am 25.1 22.8 11.6 42 7.8 WSW 15 20 8 11 1004.2 999.7 0.0
16/01:00am 25.6 23.6 11.4 41 8.3 SW 13 17 7 9 1004.4 1000.0 0.0
16/12:30am 26.1 23.0 11.5 40 8.5 SW 19 24 10 13 1004.3 999.8 0.0
16/12:00am 26.6 22.1 11.5 39 8.9 SW 26 35 14 19 1004.4 1000.0 0.0
 
Date/Time
WST
Temp
°C
App
Temp
°C
Dew
Point
°C
Rel
Hum
%
Delta-T
°C
Wind Press
QNH
hPa
Press
MSL
hPa
Rain since
9am
mm
Dir  Spd
km/h
Gust
km/h
Spd
kts
Gust
kts
15/11:30pm 27.5 24.4 11.5 37 9.4 SW 19 28 10 15 1004.4 1000.0 0.0
15/11:00pm 28.3 24.4 10.9 34 10.2 SW 22 30 12 16 1004.5 1000.1 0.0
15/10:30pm 29.1 24.4 10.7 32 10.7 SW 26 39 14 21 1004.5 1000.1 0.0
15/10:00pm 29.9 24.9 9.4 28 11.8 SW 26 32 14 17 1004.6 1000.2 0.0
15/09:30pm 30.5 25.8 9.4 27 12.1 SW 24 32 13 17 1004.5 1000.1 0.0
15/09:00pm 31.2 26.4 8.8 25 12.8 SW 24 30 13 16 1004.4 1000.0 0.0
15/08:30pm 31.9 26.9 8.2 23 13.5 SW 24 33 13 18 1004.3 999.8 0.0
15/08:00pm 32.7 26.3 6.8 20 14.5 WSW 30 37 16 20 1004.1 999.6 0.0
15/07:30pm 33.4 27.5 5.9 18 15.2 WSW 26 35 14 19 1003.8 999.3 0.0
15/07:00pm 34.3 28.0 5.8 17 15.8 WSW 28 39 15 21 1003.3 998.9 0.0
15/06:30pm 35.3 29.0 5.7 16 16.4 WSW 28 37 15 20 1003.0 998.6 0.0
15/06:00pm 36.5 29.6 2.5 12 18.1 WSW 28 41 15 22 1002.7 998.3 0.0
15/05:30pm 37.4 31.0 0.7 10 19.1 W 24 33 13 18 1002.4 997.9 0.0
15/05:00pm 37.9 31.1 1.0 10 19.4 W 26 35 14 19 1002.3 997.8 0.0
15/04:30pm 38.2 30.7 1.3 10 19.4 W 30 43 16 23 1002.1 997.6 0.0
15/04:00pm 38.6 32.5 2.9 11 19.4 W 24 41 13 22 1002.3 997.8 0.0
15/03:30pm 38.3 32.4 3.9 12 18.8 WNW 24 35 13 19 1002.3 997.8 0.0
15/03:00pm 39.0 32.1 4.4 12 19.2 WNW 30 46 16 25 1002.6 998.1 0.0
15/02:54pm 39.0 32.4 4.4 12 19.2 WNW 28 46 15 25 1002.5 998.0 0.0
15/02:30pm 39.7 33.3 5.0 12 19.5 WNW 28 46 15 25 1002.5 998.0 0.0
15/02:29pm 39.6 33.5 4.9 12 19.4 WNW 26 46 14 25 1002.5 998.0 0.0
15/02:00pm 39.4 35.7 8.0 15 18.4 NW 17 35 9 19 1003.0 998.6 0.0
15/01:30pm 37.9 34.6 9.5 18 16.9 NNW 17 32 9 17 1003.7 999.2 0.0
15/01:00pm 38.2 34.4 8.9 17 17.3 NNW 19 30 10 16 1004.1 999.6 0.0
15/12:30pm 37.5 34.8 5.5 14 17.9 W 9 28 5 15 1004.6 1000.2 0.0
15/12:00pm 36.5 32.8 2.5 12 18.1 NNW 11 22 6 12 1004.9 1000.5 0.0
15/11:30am 36.5 33.0 1.3 11 18.4 N 9 19 5 10 1005.7 1001.2 0.0
15/11:00am 34.8 30.1 1.2 12 17.4 NW 15 30 8 16 1006.2 1001.8 0.0
15/10:30am 35.2 29.3 -1.0 10 18.1 NNE 20 33 11 18 1006.5 1002.1 0.0
15/10:00am 34.0 28.1 -0.6 11 17.3 NNE 20 37 11 20 1006.8 1002.4 0.0
15/09:30am 33.3 27.4 -1.1 11 16.9 NNE 20 32 11 17 1007.2 1002.8 0.0
15/09:00am 32.8 25.7 -1.5 11 16.8 NNE 26 37 14 20 1007.7 1003.3 0.0
15/08:30am 32.5 24.6 -1.7 11 16.6 NNE 30 39 16 21 1007.9 1003.5 0.0
15/08:00am 31.8 27.5 6.8 21 13.9 N 19 35 10 19 1007.8 1003.4 0.0
15/07:30am 30.3 26.0 9.2 27 12.1 N 22 30 12 16 1007.8 1003.4 0.0
15/07:00am 29.8 23.6 4.4 20 13.4 NNE 26 35 14 19 1007.7 1003.3 0.0
15/06:30am 29.0 21.3 -3.2 12 14.8 NE 28 39 15 21 1007.3 1002.9 0.0
15/06:00am 27.1 20.5 -3.7 13 13.9 ENE 22 28 12 15 1007.1 1002.7 0.0
15/05:30am 26.0 20.3 -3.5 14 13.2 NE 17 22 9 12 1007.0 1002.6 0.0
15/05:00am 26.3 20.5 -4.3 13 13.6 NE 17 24 9 13 1006.2 1001.8 0.0
15/04:30am 26.7 20.0 -4.0 13 13.7 ENE 22 32 12 17 1005.4 1001.0 0.0
15/04:00am 26.4 21.9 -3.2 14 13.4 ENE 11 17 6 9 1005.4 1001.0 0.0
15/03:30am 27.0 22.4 -3.7 13 13.8 NE 11 15 6 8 1005.7 1001.2 0.0
15/03:00am 27.7 22.4 -3.2 13 14.1 ENE 15 19 8 10 1005.1 1000.7 0.0
15/02:30am 28.2 22.2 -2.8 13 14.3 E 19 26 10 14 1004.9 1000.5 0.0
15/02:00am 28.4 22.8 -2.6 13 14.4 E 17 20 9 11 1005.1 1000.7 0.0
15/01:30am 28.9 23.4 -2.3 13 14.6 E 17 22 9 12 1005.4 1001.0 0.0
15/01:00am 29.7 23.6 -2.7 12 15.2 E 20 30 11 16 1005.4 1001.0 0.0
15/12:30am 30.0 24.0 -1.4 13 15.0 E 20 26 11 14 1005.6 1001.1 0.0
15/12:00am 30.6 24.7 -0.9 13 15.3 E 20 33 11 18 1005.9 1001.4 0.0
 
Date/Time
WST
Temp
°C
App
Temp
°C
Dew
Point
°C
Rel
Hum
%
Delta-T
°C
Wind Press
QNH
hPa
Press
MSL
hPa
Rain since
9am
mm
Dir  Spd
km/h
Gust
km/h
Spd
kts
Gust
kts
14/11:30pm 31.3 24.2 -1.5 12 15.8 E 26 35 14 19 1006.0 1001.6 0.0
14/11:00pm 31.9 24.5 -1.0 12 16.1 E 28 41 15 22 1006.1 1001.7 0.0
14/10:30pm 32.5 25.5 -0.5 12 16.3 E 26 35 14 19 1006.3 1001.9 0.0
14/10:00pm 33.0 26.2 0.9 13 16.3 E 26 39 14 21 1006.6 1002.2 0.0
14/09:30pm 33.7 27.2 2.5 14 16.3 E 26 37 14 20 1006.6 1002.2 0.0
14/09:00pm 34.2 27.6 1.9 13 16.8 E 26 33 14 18 1006.4 1002.0 0.0
14/08:30pm 34.8 29.4 2.3 13 17.0 ESE 20 30 11 16 1006.5 1002.1 0.0
14/08:00pm 35.3 29.9 2.7 13 17.3 E 20 28 11 15 1006.3 1001.9 0.0
14/07:30pm 36.0 30.9 3.3 13 17.5 E 19 24 10 13 1006.3 1001.9 0.0
14/07:00pm 36.6 32.0 3.7 13 17.9 E 17 24 9 13 1006.3 1001.9 0.0
14/06:30pm 37.3 33.2 4.3 13 18.1 E 15 24 8 13 1006.1 1001.7 0.0
14/06:00pm 37.9 34.4 3.6 12 18.7 ENE 11 20 6 11 1006.3 1001.9 0.0
14/05:30pm 38.3 35.3 3.9 12 18.8 E 9 17 5 9 1006.3 1001.9 0.0
14/05:00pm 38.3 34.9 3.9 12 18.9 NE 11 19 6 10 1006.4 1002.0 0.0
14/04:30pm 39.1 35.0 4.5 12 19.2 ENE 15 26 8 14 1006.6 1002.2 0.0
14/04:00pm 38.2 34.6 5.0 13 18.5 NE 13 24 7 13 1006.8 1002.4 0.0
14/03:30pm 38.5 35.7 5.2 13 18.6 E 9 24 5 13 1006.8 1002.4 0.0
14/03:00pm 38.6 35.4 5.3 13 18.7 NE 11 22 6 12 1007.1 1002.7 0.0
14/02:30pm 38.6 33.4 5.3 13 18.7 NE 22 35 12 19 1007.5 1003.0 0.0
14/02:00pm 39.1 35.0 4.5 12 19.2 ENE 15 28 8 15 1008.0 1003.6 0.0
14/01:30pm 36.8 32.4 4.9 14 17.6 ENE 17 32 9 17 1008.4 1004.0 0.0
14/01:00pm 37.3 32.8 4.3 13 18.1 ENE 17 32 9 17 1008.9 1004.5 0.0
14/12:30pm 36.7 31.4 4.9 14 17.5 ENE 22 35 12 19 1009.2 1004.8 0.0
14/12:00pm 36.6 31.4 3.7 13 17.8 ENE 20 33 11 18 1009.9 1005.5 0.0
14/11:30am 36.0 30.8 3.3 13 17.5 ENE 20 32 11 17 1010.3 1005.9 0.0
14/11:00am 34.7 28.7 3.3 14 16.7 ENE 24 37 13 20 1010.8 1006.4 0.0
14/10:30am 33.0 26.9 2.9 15 15.8 ENE 24 35 13 19 1011.4 1007.0 0.0
14/10:00am 31.8 25.9 2.0 15 15.3 ENE 22 35 12 19 1011.6 1007.2 0.0
14/09:30am 31.2 24.7 2.4 16 14.8 ENE 26 37 14 20 1011.9 1007.5 0.0
14/09:00am 29.8 22.8 2.1 17 14.1 ENE 28 39 15 21 1012.2 1007.8 0.0
14/08:30am 28.8 21.8 2.1 18 13.5 ENE 28 39 15 21 1012.5 1008.1 0.0
14/08:00am 28.1 20.7 1.6 18 13.2 ENE 30 39 16 21 1012.6 1008.3 0.0
14/07:30am 27.1 20.5 2.2 20 12.4 E 26 37 14 20 1012.5 1008.1 0.0
14/07:00am 26.1 19.1 2.1 21 11.9 E 28 39 15 21 1012.5 1008.1 0.0
14/06:30am 25.4 18.8 2.2 22 11.5 E 26 39 14 21 1012.3 1007.9 0.0
14/06:00am 24.9 19.0 1.7 22 11.3 E 22 32 12 17 1012.0 1007.6 0.0
14/05:30am 24.7 18.4 1.6 22 11.2 E 24 33 13 18 1011.8 1007.4 0.0
14/05:00am 25.0 19.1 1.8 22 11.4 E 22 35 12 19 1011.5 1007.1 0.0
14/04:30am 25.4 19.2 2.2 22 11.5 E 24 33 13 18 1011.1 1006.8 0.0
14/04:00am 25.8 19.2 1.8 21 11.8 E 26 39 14 21 1010.6 1006.2 0.0
14/03:30am 26.3 19.7 2.3 21 11.9 E 26 41 14 22 1010.6 1006.2 0.0
14/03:00am 26.7 19.5 3.2 22 11.9 E 30 43 16 23 1010.4 1006.0 0.0
14/02:30am 27.2 19.7 3.7 22 12.1 E 32 44 17 24 1010.3 1005.9 0.0
14/02:04am 27.6 20.2 4.0 22 12.2 E 32 52 17 28 1010.3 1005.9 0.0
14/02:00am 27.6 20.2 4.0 22 12.2 E 32 48 17 26 1010.3 1005.9 0.0
14/01:30am 28.2 21.3 4.5 22 12.4 E 30 44 16 24 1010.3 1005.9 0.0
14/01:00am 28.6 22.8 4.2 21 12.8 E 24 37 13 20 1010.3 1005.9 0.0
14/12:30am 29.2 23.4 4.6 21 13.0 E 24 35 13 19 1010.4 1006.0 0.0
14/12:00am 29.7 24.2 5.7 22 13.0 E 24 37 13 20 1010.5 1006.1 0.0
 
Date/Time
WST
Temp
°C
App
Temp
°C
Dew
Point
°C
Rel
Hum
%
Delta-T
°C
Wind Press
QNH
hPa
Press
MSL
hPa
Rain since
9am
mm
Dir  Spd
km/h
Gust
km/h
Spd
kts
Gust
kts
13/11:30pm 30.3 24.9 6.2 22 13.1 E 24 35 13 19 1010.6 1006.2 0.0
13/11:00pm 30.9 25.2 6.7 22 13.4 E 26 37 14 20 1010.7 1006.3 0.0
13/10:30pm 31.4 26.2 7.1 22 13.5 E 24 37 13 20 1010.9 1006.5 0.0
13/10:00pm 31.6 28.1 8.6 24 13.1 ESE 17 26 9 14 1011.1 1006.8 0.0
13/09:30pm 32.1 28.5 8.4 23 13.5 ESE 17 22 9 12 1011.2 1006.9 0.0
13/09:00pm 32.6 29.1 8.8 23 13.7 E 17 24 9 13 1011.0 1006.7 0.0
13/08:30pm 32.9 30.2 9.0 23 13.8 E 13 20 7 11 1011.1 1006.8 0.0
13/08:00pm 33.5 30.4 8.9 22 14.2 E 15 20 8 11 1011.1 1006.8 0.0
13/07:30pm 34.1 31.1 9.4 22 14.4 ESE 15 22 8 12 1011.0 1006.7 0.0
13/07:00pm 34.6 31.2 9.1 21 14.9 ESE 17 22 9 12 1011.0 1006.7 0.0
13/06:30pm 35.0 31.9 8.7 20 15.3 E 15 22 8 12 1010.8 1006.4 0.0

Other Formats:

Comma delimited format used in spreadsheet applications
http://www.bom.gov.au/fwo/IDW60801/IDW60801.99400.axf

JavaScript Object Notation format (JSON) in row-major order
http://www.bom.gov.au/fwo/IDW60801/IDW60801.99400.json